createdAt,value
2022-10-16T00:00:23.213Z,16.72
2022-10-16T00:01:18.335Z,16.73
2022-10-16T00:02:18.590Z,16.68
2022-10-16T00:03:18.338Z,16.68
2022-10-16T00:04:18.346Z,16.74
2022-10-16T00:05:18.324Z,16.73
2022-10-16T00:06:18.348Z,16.73
2022-10-16T00:07:18.325Z,16.76
2022-10-16T00:08:18.342Z,16.61
2022-10-16T00:09:18.339Z,16.68
2022-10-16T00:10:18.340Z,16.62
2022-10-16T00:11:21.362Z,16.73
2022-10-16T00:12:21.332Z,16.68
2022-10-16T00:13:18.351Z,16.64
2022-10-16T00:14:21.409Z,16.74
2022-10-16T00:15:18.338Z,16.72
2022-10-16T00:16:21.444Z,16.69
2022-10-16T00:17:18.357Z,16.69
2022-10-16T00:18:18.356Z,16.73
2022-10-16T00:19:18.351Z,16.64
2022-10-16T00:20:18.347Z,16.66
2022-10-16T00:21:18.347Z,16.66
2022-10-16T00:22:21.166Z,16.66
2022-10-16T00:23:18.364Z,16.72
2022-10-16T00:24:18.364Z,16.69
2022-10-16T00:25:18.354Z,16.66
2022-10-16T00:26:18.373Z,16.65
2022-10-16T00:27:18.390Z,16.66
2022-10-16T00:28:18.448Z,16.66
2022-10-16T00:29:18.356Z,16.61
2022-10-16T00:30:18.363Z,16.58
2022-10-16T00:31:18.365Z,16.68
2022-10-16T00:32:18.366Z,16.62
2022-10-16T00:33:19.991Z,16.5
2022-10-16T00:34:18.380Z,16.47
2022-10-16T00:35:18.372Z,16.5
2022-10-16T00:36:18.375Z,16.58
2022-10-16T00:37:18.378Z,16.62
2022-10-16T00:38:18.522Z,16.51
2022-10-16T00:39:18.385Z,16.55
2022-10-16T00:40:18.390Z,16.55
2022-10-16T00:41:18.394Z,16.5
2022-10-16T00:42:18.380Z,16.57
2022-10-16T00:43:18.435Z,16.54
2022-10-16T00:44:21.436Z,16.54
2022-10-16T00:45:18.403Z,16.55
2022-10-16T00:46:18.408Z,16.55
2022-10-16T00:47:18.401Z,16.61
2022-10-16T00:48:18.403Z,16.61
2022-10-16T00:49:21.280Z,16.58
2022-10-16T00:50:18.399Z,16.59
2022-10-16T00:51:18.395Z,16.58
2022-10-16T00:52:18.409Z,16.61
2022-10-16T00:53:18.585Z,16.64
2022-10-16T00:54:18.428Z,16.64
2022-10-16T00:55:21.403Z,16.69
2022-10-16T00:56:18.407Z,16.68
2022-10-16T00:57:19.449Z,16.66
2022-10-16T00:58:18.437Z,16.64
2022-10-16T00:59:18.463Z,16.64
2022-10-16T01:00:19.495Z,16.62
2022-10-16T01:01:18.620Z,16.64
2022-10-16T01:02:18.420Z,16.69
2022-10-16T01:03:18.426Z,16.68
2022-10-16T01:04:18.577Z,16.74
2022-10-16T01:05:18.450Z,16.69
2022-10-16T01:06:18.590Z,16.74
2022-10-16T01:07:18.442Z,16.76
2022-10-16T01:08:18.432Z,16.68
2022-10-16T01:09:18.435Z,16.72
2022-10-16T01:10:18.457Z,16.58
2022-10-16T01:11:18.431Z,16.65
2022-10-16T01:12:18.445Z,16.66
2022-10-16T01:13:18.437Z,16.68
2022-10-16T01:14:18.446Z,16.69
2022-10-16T01:15:18.461Z,16.72
2022-10-16T01:16:18.441Z,16.79
2022-10-16T01:17:18.448Z,16.74
2022-10-16T01:18:18.439Z,16.69
2022-10-16T01:19:18.454Z,16.69
2022-10-16T01:20:18.446Z,16.65
2022-10-16T01:21:18.477Z,16.65
2022-10-16T01:22:18.460Z,16.62
2022-10-16T01:23:18.461Z,16.72
2022-10-16T01:24:18.460Z,16.69
2022-10-16T01:25:18.450Z,16.72
2022-10-16T01:26:18.487Z,16.73
2022-10-16T01:27:21.230Z,16.61
2022-10-16T01:28:18.515Z,16.69
2022-10-16T01:29:18.460Z,16.69
2022-10-16T01:30:18.482Z,16.62
2022-10-16T01:31:18.496Z,16.61
2022-10-16T01:32:18.483Z,16.69
2022-10-16T01:33:18.477Z,16.68
2022-10-16T01:34:18.489Z,16.66
2022-10-16T01:35:18.482Z,16.66
2022-10-16T01:36:18.518Z,16.65
2022-10-16T01:37:18.500Z,16.65
2022-10-16T01:38:18.479Z,16.62
2022-10-16T01:39:18.488Z,16.61
2022-10-16T01:40:18.480Z,16.57
2022-10-16T01:41:18.549Z,16.62
2022-10-16T01:42:18.727Z,16.49
2022-10-16T01:43:21.512Z,16.59
2022-10-16T01:44:18.486Z,16.59
2022-10-16T01:45:18.516Z,16.64
2022-10-16T01:46:18.493Z,16.64
2022-10-16T01:47:18.525Z,16.65
2022-10-16T01:48:18.493Z,16.66
2022-10-16T01:49:18.498Z,16.61
2022-10-16T01:50:18.498Z,16.61
2022-10-16T01:51:18.512Z,16.65
2022-10-16T01:52:18.498Z,16.69
2022-10-16T01:53:18.541Z,16.65
2022-10-16T01:54:21.312Z,16.66
2022-10-16T01:55:18.510Z,16.66
2022-10-16T01:56:18.515Z,16.69
2022-10-16T01:57:18.548Z,16.55
2022-10-16T01:58:18.546Z,16.68
2022-10-16T01:59:18.519Z,16.72
2022-10-16T02:00:18.518Z,16.73
2022-10-16T02:01:18.603Z,16.64
2022-10-16T02:02:18.512Z,16.61
2022-10-16T02:03:18.551Z,16.73
2022-10-16T02:04:18.521Z,16.65
2022-10-16T02:05:21.435Z,16.66
2022-10-16T02:06:18.533Z,16.68
2022-10-16T02:07:18.523Z,16.62
2022-10-16T02:08:18.530Z,16.59
2022-10-16T02:09:18.587Z,16.69
2022-10-16T02:10:18.733Z,16.65
2022-10-16T02:11:18.540Z,16.58
2022-10-16T02:12:18.551Z,16.68
2022-10-16T02:13:18.542Z,16.65
2022-10-16T02:14:18.586Z,16.73
2022-10-16T02:15:18.545Z,16.65
2022-10-16T02:16:21.572Z,16.68
2022-10-16T02:17:18.549Z,16.69
2022-10-16T02:18:18.548Z,16.69
2022-10-16T02:19:18.600Z,16.65
2022-10-16T02:20:18.669Z,16.66
2022-10-16T02:21:18.561Z,16.73
2022-10-16T02:22:18.559Z,16.82
2022-10-16T02:23:18.565Z,16.66
2022-10-16T02:24:18.582Z,16.76
2022-10-16T02:25:18.584Z,16.62
2022-10-16T02:26:18.562Z,16.72
2022-10-16T02:27:21.411Z,16.65
2022-10-16T02:28:18.897Z,16.68
2022-10-16T02:29:18.610Z,16.72
2022-10-16T02:30:18.624Z,16.69
2022-10-16T02:31:18.592Z,16.69
2022-10-16T02:32:18.572Z,16.72
2022-10-16T02:33:18.580Z,16.72
2022-10-16T02:34:18.596Z,16.65
2022-10-16T02:35:18.600Z,16.76
2022-10-16T02:36:18.573Z,16.72
2022-10-16T02:37:18.589Z,16.65
2022-10-16T02:38:21.665Z,16.66
2022-10-16T02:39:18.624Z,16.66
2022-10-16T02:40:22.937Z,16.68
2022-10-16T02:41:18.621Z,16.66
2022-10-16T02:42:18.585Z,16.59
2022-10-16T02:43:18.594Z,16.65
2022-10-16T02:44:18.615Z,16.58
2022-10-16T02:45:18.608Z,16.64
2022-10-16T02:46:18.644Z,16.61
2022-10-16T02:47:18.610Z,16.58
2022-10-16T02:48:18.813Z,16.61
2022-10-16T02:49:21.673Z,16.57
2022-10-16T02:50:18.600Z,16.61
2022-10-16T02:51:18.624Z,16.57
2022-10-16T02:52:18.605Z,16.68
2022-10-16T02:53:18.612Z,16.72
2022-10-16T02:54:18.624Z,16.69
2022-10-16T02:55:18.611Z,16.58
2022-10-16T02:57:18.640Z,16.69
2022-10-16T02:58:18.706Z,16.57
2022-10-16T02:59:18.643Z,16.66
2022-10-16T03:00:21.391Z,16.61
2022-10-16T03:01:18.810Z,16.64
2022-10-16T03:02:18.710Z,16.59
2022-10-16T03:03:18.627Z,16.61
2022-10-16T03:04:18.640Z,16.66
2022-10-16T03:05:18.888Z,16.59
2022-10-16T03:06:18.639Z,16.64
2022-10-16T03:07:18.676Z,16.61
2022-10-16T03:08:18.638Z,16.65
2022-10-16T03:09:18.667Z,16.61
2022-10-16T03:10:18.635Z,16.62
2022-10-16T03:11:21.754Z,16.66
2022-10-16T03:12:18.637Z,16.72
2022-10-16T03:13:18.662Z,16.54
2022-10-16T03:14:19.065Z,16.68
2022-10-16T03:15:18.669Z,16.59
2022-10-16T03:16:21.451Z,16.68
2022-10-16T03:17:18.654Z,16.65
2022-10-16T03:18:18.677Z,16.64
2022-10-16T03:19:18.686Z,16.65
2022-10-16T03:20:18.653Z,16.61
2022-10-16T03:21:18.732Z,16.61
2022-10-16T03:22:21.496Z,16.69
2022-10-16T03:23:18.748Z,16.65
2022-10-16T03:24:18.734Z,16.72
2022-10-16T03:25:18.688Z,16.66
2022-10-16T03:26:18.664Z,16.73
2022-10-16T03:27:25.023Z,16.69
2022-10-16T03:28:18.683Z,16.65
2022-10-16T03:29:19.772Z,16.62
2022-10-16T03:30:18.668Z,16.68
2022-10-16T03:31:18.781Z,16.73
2022-10-16T03:32:18.680Z,16.72
2022-10-16T03:33:18.712Z,16.65
2022-10-16T03:34:18.756Z,16.61
2022-10-16T03:35:18.732Z,16.69
2022-10-16T03:36:18.760Z,16.69
2022-10-16T03:37:18.695Z,16.65
2022-10-16T03:38:18.709Z,16.59
2022-10-16T03:39:18.770Z,16.55
2022-10-16T03:40:18.686Z,16.61
2022-10-16T03:41:18.742Z,16.69
2022-10-16T03:42:18.689Z,16.51
2022-10-16T03:43:19.737Z,16.51
2022-10-16T03:44:18.780Z,16.54
2022-10-16T03:45:18.768Z,16.55
2022-10-16T03:46:18.699Z,16.5
2022-10-16T03:47:18.701Z,16.49
2022-10-16T03:48:18.705Z,16.5
2022-10-16T03:49:18.735Z,16.54
2022-10-16T03:50:18.736Z,16.49
2022-10-16T03:51:18.712Z,16.57
2022-10-16T03:53:18.715Z,16.58
2022-10-16T03:54:21.572Z,16.5
2022-10-16T03:55:22.598Z,16.51
2022-10-16T03:56:18.723Z,16.54
2022-10-16T03:57:18.732Z,16.47
2022-10-16T03:58:18.831Z,16.49
2022-10-16T03:59:18.811Z,16.46
2022-10-16T04:00:18.729Z,16.57
2022-10-16T04:01:19.111Z,16.43
2022-10-16T04:02:18.729Z,16.51
2022-10-16T04:03:18.732Z,16.46
2022-10-16T04:04:18.785Z,16.46
2022-10-16T04:05:21.820Z,16.49
2022-10-16T04:06:18.767Z,16.46
2022-10-16T04:07:18.729Z,16.49
2022-10-16T04:08:18.735Z,16.47
2022-10-16T04:09:18.760Z,16.46
2022-10-16T04:10:21.862Z,16.51
2022-10-16T04:11:18.737Z,16.51
2022-10-16T04:12:18.750Z,16.55
2022-10-16T04:14:18.766Z,16.43
2022-10-16T04:15:18.750Z,16.47
2022-10-16T04:16:26.321Z,16.49
2022-10-16T04:17:18.779Z,16.5
2022-10-16T04:18:18.755Z,16.49
2022-10-16T04:19:18.775Z,16.58
2022-10-16T04:20:18.757Z,16.51
2022-10-16T04:21:21.547Z,16.5
2022-10-16T04:22:18.965Z,16.49
2022-10-16T04:23:18.759Z,16.5
2022-10-16T04:24:18.809Z,16.49
2022-10-16T04:25:18.763Z,16.51
2022-10-16T04:26:18.794Z,16.57
2022-10-16T04:27:18.783Z,16.57
2022-10-16T04:28:18.878Z,16.59
2022-10-16T04:29:18.800Z,16.58
2022-10-16T04:30:18.973Z,16.54
2022-10-16T04:31:18.788Z,16.54
2022-10-16T04:32:21.936Z,16.55
2022-10-16T04:33:18.786Z,16.57
2022-10-16T04:34:18.822Z,16.58
2022-10-16T04:35:18.796Z,16.55
2022-10-16T04:36:18.787Z,16.46
2022-10-16T04:37:18.817Z,16.59
2022-10-16T04:38:18.796Z,16.59
2022-10-16T04:39:18.809Z,16.57
2022-10-16T04:40:18.796Z,16.59
2022-10-16T04:41:18.804Z,16.57
2022-10-16T04:42:18.835Z,16.54
2022-10-16T04:43:21.712Z,16.58
2022-10-16T04:44:18.814Z,16.58
2022-10-16T04:45:21.775Z,16.5
2022-10-16T04:46:18.815Z,16.59
2022-10-16T04:47:18.811Z,16.55
2022-10-16T04:48:18.865Z,16.54
2022-10-16T04:49:18.833Z,16.51
2022-10-16T04:50:18.803Z,16.55
2022-10-16T04:51:18.815Z,16.57
2022-10-16T04:52:18.819Z,16.57
2022-10-16T04:53:18.851Z,16.55
2022-10-16T04:54:20.461Z,16.51
2022-10-16T04:55:18.849Z,16.54
2022-10-16T04:56:18.821Z,16.51
2022-10-16T04:57:18.818Z,16.55
2022-10-16T04:58:18.849Z,16.46
2022-10-16T04:59:18.843Z,16.5
2022-10-16T05:00:18.822Z,16.46
2022-10-16T05:01:18.827Z,16.43
2022-10-16T05:02:18.849Z,16.51
2022-10-16T05:03:19.522Z,16.47
2022-10-16T05:04:18.878Z,16.49
2022-10-16T05:05:21.591Z,16.44
2022-10-16T05:06:18.841Z,16.43
2022-10-16T05:07:18.843Z,16.4
2022-10-16T05:08:22.032Z,16.46
2022-10-16T05:09:18.891Z,16.46
2022-10-16T05:10:18.841Z,16.46
2022-10-16T05:11:18.838Z,16.44
2022-10-16T05:12:18.876Z,16.4
2022-10-16T05:13:18.864Z,16.43
2022-10-16T05:14:19.011Z,16.47
2022-10-16T05:15:18.868Z,16.39
2022-10-16T05:16:21.675Z,16.41
2022-10-16T05:17:18.851Z,16.32
2022-10-16T05:18:18.859Z,16.39
2022-10-16T05:19:34.412Z,16.37
2022-10-16T05:20:18.856Z,16.39
2022-10-16T05:21:18.862Z,16.37
2022-10-16T05:22:18.867Z,16.39
2022-10-16T05:23:18.943Z,16.32
2022-10-16T05:24:18.891Z,16.26
2022-10-16T05:25:18.899Z,16.34
2022-10-16T05:26:18.892Z,16.26
2022-10-16T05:27:21.661Z,16.22
2022-10-16T05:28:18.927Z,16.26
2022-10-16T05:29:18.877Z,16.21
2022-10-16T05:30:18.916Z,16.28
2022-10-16T05:31:18.880Z,16.28
2022-10-16T05:32:19.277Z,16.16
2022-10-16T05:33:18.884Z,16.22
2022-10-16T05:34:18.899Z,16.25
2022-10-16T05:35:18.925Z,16.25
2022-10-16T05:36:18.908Z,16.26
2022-10-16T05:37:18.892Z,16.32
2022-10-16T05:38:20.008Z,16.18
2022-10-16T05:39:18.922Z,16.31
2022-10-16T05:40:18.933Z,16.28
2022-10-16T05:41:18.929Z,16.29
2022-10-16T05:42:18.913Z,16.28
2022-10-16T05:43:21.920Z,16.28
2022-10-16T05:44:18.945Z,16.39
2022-10-16T05:45:18.936Z,16.41
2022-10-16T05:46:18.975Z,16.37
2022-10-16T05:47:18.908Z,16.43
2022-10-16T05:48:18.929Z,16.43
2022-10-16T05:49:21.697Z,16.41
2022-10-16T05:50:18.939Z,16.34
2022-10-16T05:51:18.936Z,16.36
2022-10-16T05:52:18.937Z,16.4
2022-10-16T05:53:18.925Z,16.46
2022-10-16T05:54:21.688Z,16.44
2022-10-16T05:55:18.956Z,16.44
2022-10-16T05:56:18.927Z,16.4
2022-10-16T05:57:18.955Z,16.43
2022-10-16T05:58:18.926Z,16.46
2022-10-16T05:59:18.926Z,16.4
2022-10-16T06:00:19.161Z,16.49
2022-10-16T06:01:19.275Z,16.4
2022-10-16T06:02:18.956Z,16.47
2022-10-16T06:03:18.935Z,16.54
2022-10-16T06:04:19.212Z,16.43
2022-10-16T06:05:19.029Z,16.43
2022-10-16T06:06:21.862Z,16.39
2022-10-16T06:07:18.978Z,16.5
2022-10-16T06:08:18.940Z,16.4
2022-10-16T06:09:19.017Z,16.57
2022-10-16T06:10:18.964Z,16.46
2022-10-16T06:11:18.943Z,16.44
2022-10-16T06:12:18.976Z,16.49
2022-10-16T06:13:18.994Z,16.44
2022-10-16T06:14:18.955Z,16.44
2022-10-16T06:15:18.974Z,16.49
2022-10-16T06:16:18.952Z,16.5
2022-10-16T06:17:18.971Z,16.43
2022-10-16T06:18:18.977Z,16.47
2022-10-16T06:19:18.958Z,16.46
2022-10-16T06:20:19.229Z,16.47
2022-10-16T06:21:21.734Z,16.47
2022-10-16T06:22:18.987Z,16.57
2022-10-16T06:23:18.995Z,16.55
2022-10-16T06:24:18.988Z,16.51
2022-10-16T06:25:18.995Z,16.54
2022-10-16T06:26:19.007Z,16.55
2022-10-16T06:27:18.999Z,16.44
2022-10-16T06:28:19.032Z,16.5
2022-10-16T06:29:19.006Z,16.46
2022-10-16T06:30:19.018Z,16.49
2022-10-16T06:31:18.985Z,16.59
2022-10-16T06:32:22.057Z,16.47
2022-10-16T06:33:19.021Z,16.61
2022-10-16T06:34:19.029Z,16.55
2022-10-16T06:35:19.006Z,16.54
2022-10-16T06:36:19.127Z,16.68
2022-10-16T06:37:21.766Z,16.73
2022-10-16T06:38:19.011Z,16.64
2022-10-16T06:39:19.017Z,16.74
2022-10-16T06:40:19.020Z,16.65
2022-10-16T06:41:19.003Z,16.72
2022-10-16T06:42:18.997Z,16.69
2022-10-16T06:43:22.118Z,16.79
2022-10-16T06:44:19.012Z,16.79
2022-10-16T06:45:19.054Z,16.83
2022-10-16T06:46:19.003Z,16.74
2022-10-16T06:47:19.009Z,16.79
2022-10-16T06:48:21.912Z,16.77
2022-10-16T06:49:19.014Z,16.73
2022-10-16T06:50:19.060Z,16.73
2022-10-16T06:51:19.012Z,16.86
2022-10-16T06:52:19.036Z,16.84
2022-10-16T06:53:19.025Z,16.83
2022-10-16T06:54:19.038Z,16.87
2022-10-16T06:55:19.086Z,16.82
2022-10-16T06:56:19.029Z,16.92
2022-10-16T06:57:19.031Z,16.79
2022-10-16T06:58:19.088Z,16.91
2022-10-16T06:59:19.269Z,16.84
2022-10-16T07:00:22.250Z,16.82
2022-10-16T07:01:19.037Z,16.87
2022-10-16T07:02:19.088Z,16.83
2022-10-16T07:03:19.043Z,16.91
2022-10-16T07:04:19.062Z,16.86
2022-10-16T07:05:19.055Z,16.91
2022-10-16T07:06:19.078Z,16.86
2022-10-16T07:07:19.047Z,16.84
2022-10-16T07:08:21.878Z,16.89
2022-10-16T07:09:19.082Z,16.87
2022-10-16T07:10:22.103Z,16.92
2022-10-16T07:11:19.047Z,16.92
2022-10-16T07:12:19.085Z,16.91
2022-10-16T07:13:18.897Z,16.97
2022-10-16T07:14:19.258Z,16.91
2022-10-16T07:15:19.074Z,16.94
2022-10-16T07:16:24.664Z,16.89
2022-10-16T07:17:19.063Z,16.84
2022-10-16T07:18:19.089Z,16.94
2022-10-16T07:19:19.085Z,16.91
2022-10-16T07:20:19.117Z,16.94
2022-10-16T07:21:21.925Z,16.99
2022-10-16T07:22:19.102Z,16.91
2022-10-16T07:23:19.073Z,17.05
2022-10-16T07:24:19.080Z,17.05
2022-10-16T07:25:19.087Z,16.99
2022-10-16T07:26:19.111Z,16.95
2022-10-16T07:27:19.084Z,17.02
2022-10-16T07:28:19.175Z,16.95
2022-10-16T07:29:19.107Z,17.09
2022-10-16T07:30:19.113Z,16.99
2022-10-16T07:31:19.095Z,17.05
2022-10-16T07:32:21.879Z,17.04
2022-10-16T07:33:19.090Z,17.04
2022-10-16T07:34:19.093Z,17.04
2022-10-16T07:35:19.112Z,16.92
2022-10-16T07:36:20.903Z,17.05
2022-10-16T07:37:19.099Z,17.05
2022-10-16T07:38:19.129Z,17.04
2022-10-16T07:39:19.098Z,17.1
2022-10-16T07:40:19.126Z,17.02
2022-10-16T07:41:19.161Z,17.07
2022-10-16T07:42:19.128Z,17.05
2022-10-16T07:43:22.142Z,16.95
2022-10-16T07:44:19.113Z,17.05
2022-10-16T07:45:19.126Z,17.1
2022-10-16T07:46:19.107Z,16.94
2022-10-16T07:47:19.108Z,16.98
2022-10-16T07:48:19.162Z,17.05
2022-10-16T07:49:19.112Z,17.07
2022-10-16T07:50:19.143Z,17.1
2022-10-16T07:51:19.119Z,17.14
2022-10-16T07:52:19.060Z,17.1
2022-10-16T07:53:20.558Z,17.22
2022-10-16T07:54:22.304Z,17.22
2022-10-16T07:55:19.175Z,17.19
2022-10-16T07:56:19.152Z,17.23
2022-10-16T07:57:19.132Z,17.27
2022-10-16T07:58:19.155Z,17.31
2022-10-16T07:59:19.138Z,17.27
2022-10-16T08:00:19.148Z,17.27
2022-10-16T08:01:19.434Z,17.37
2022-10-16T08:02:22.141Z,17.32
2022-10-16T08:03:19.138Z,17.38
2022-10-16T08:04:19.177Z,17.38
2022-10-16T08:05:22.307Z,17.37
2022-10-16T08:06:20.650Z,17.39
2022-10-16T08:07:19.144Z,17.42
2022-10-16T08:08:19.180Z,17.42
2022-10-16T08:09:19.160Z,17.37
2022-10-16T08:10:19.363Z,17.44
2022-10-16T08:11:19.156Z,17.44
2022-10-16T08:12:19.154Z,17.34
2022-10-16T08:13:19.157Z,17.47
2022-10-16T08:14:19.184Z,17.52
2022-10-16T08:15:19.173Z,17.44
2022-10-16T08:16:22.301Z,17.57
2022-10-16T08:17:18.999Z,17.49
2022-10-16T08:18:19.161Z,17.5
2022-10-16T08:19:19.407Z,17.49
2022-10-16T08:20:19.053Z,17.52
2022-10-16T08:21:25.703Z,17.52
2022-10-16T08:22:19.194Z,17.56
2022-10-16T08:23:19.180Z,17.59
2022-10-16T08:24:19.200Z,17.59
2022-10-16T08:25:19.198Z,17.69
2022-10-16T08:26:19.213Z,17.71
2022-10-16T08:27:19.185Z,17.82
2022-10-16T08:28:19.247Z,17.82
2022-10-16T08:29:19.183Z,17.87
2022-10-16T08:30:19.243Z,17.95
2022-10-16T08:31:19.299Z,17.95
2022-10-16T08:32:21.065Z,18.03
2022-10-16T08:33:19.190Z,18
2022-10-16T08:34:19.211Z,18.16
2022-10-16T08:35:19.220Z,18.24
2022-10-16T08:36:19.222Z,18.36
2022-10-16T08:37:19.201Z,18.41
2022-10-16T08:38:19.207Z,18.46
2022-10-16T08:39:19.207Z,18.57
2022-10-16T08:40:19.379Z,18.57
2022-10-16T08:41:19.212Z,18.71
2022-10-16T08:42:19.238Z,18.78
2022-10-16T08:43:19.206Z,18.86
2022-10-16T08:44:19.067Z,18.89
2022-10-16T08:45:19.231Z,18.91
2022-10-16T08:46:19.262Z,18.91
2022-10-16T08:47:19.377Z,18.96
2022-10-16T08:48:28.142Z,18.85
2022-10-16T08:49:19.218Z,18.81
2022-10-16T08:50:19.385Z,18.88
2022-10-16T08:51:19.229Z,18.83
2022-10-16T08:52:19.266Z,18.85
2022-10-16T08:53:19.262Z,18.79
2022-10-16T08:54:19.234Z,18.97
2022-10-16T08:55:19.254Z,19.12
2022-10-16T08:56:19.233Z,19.12
2022-10-16T08:57:26.639Z,19.17
2022-10-16T08:58:19.240Z,19.22
2022-10-16T08:59:22.273Z,19.29
2022-10-16T09:00:19.285Z,19.24
2022-10-16T09:01:19.688Z,19.27
2022-10-16T09:02:19.267Z,19.32
2022-10-16T09:03:19.270Z,19.26
2022-10-16T09:04:22.356Z,19.19
2022-10-16T09:05:19.288Z,19.24
2022-10-16T09:06:19.256Z,19.38
2022-10-16T09:07:19.260Z,19.27
2022-10-16T09:08:19.288Z,19.41
2022-10-16T09:09:19.282Z,19.37
2022-10-16T09:10:19.334Z,19.29
2022-10-16T09:11:19.266Z,19.24
2022-10-16T09:12:19.258Z,19.32
2022-10-16T09:13:19.297Z,19.27
2022-10-16T09:14:19.272Z,19.29
2022-10-16T09:15:22.944Z,19.23
2022-10-16T09:16:19.276Z,19.24
2022-10-16T09:17:19.284Z,19.2
2022-10-16T09:18:19.298Z,19.24
2022-10-16T09:19:19.278Z,19.2
2022-10-16T09:20:19.331Z,19.2
2022-10-16T09:21:19.287Z,19.15
2022-10-16T09:22:19.315Z,19.17
2022-10-16T09:23:19.309Z,19.12
2022-10-16T09:24:19.311Z,19.16
2022-10-16T09:25:19.305Z,19.17
2022-10-16T09:27:19.293Z,19.2
2022-10-16T09:28:19.384Z,19.24
2022-10-16T09:29:19.357Z,19.19
2022-10-16T09:30:19.464Z,19.19
2022-10-16T09:31:19.295Z,19.12
2022-10-16T09:32:19.294Z,19.07
2022-10-16T09:33:19.299Z,19.08
2022-10-16T09:34:22.331Z,18.96
2022-10-16T09:35:19.390Z,19.05
2022-10-16T09:36:22.084Z,19.09
2022-10-16T09:37:22.419Z,19.09
2022-10-16T09:38:19.302Z,18.89
2022-10-16T09:39:19.306Z,18.98
2022-10-16T09:40:19.416Z,18.89
2022-10-16T09:41:19.407Z,18.98
2022-10-16T09:42:19.317Z,18.86
2022-10-16T09:43:19.339Z,18.96
2022-10-16T09:44:19.330Z,18.88
2022-10-16T09:45:19.353Z,18.89
2022-10-16T09:46:19.360Z,18.97
2022-10-16T09:47:19.384Z,18.94
2022-10-16T09:48:20.417Z,19
2022-10-16T09:49:19.337Z,19.07
2022-10-16T09:50:19.432Z,19.08
2022-10-16T09:51:19.331Z,19.07
2022-10-16T09:52:19.504Z,19.01
2022-10-16T09:53:19.325Z,19.11
2022-10-16T09:54:19.332Z,19.17
2022-10-16T09:55:19.335Z,19.19
2022-10-16T09:56:19.375Z,19.11
2022-10-16T09:57:19.337Z,19.23
2022-10-16T09:58:19.335Z,19.15
2022-10-16T09:59:22.103Z,19.04
2022-10-16T10:00:19.449Z,19.24
2022-10-16T10:01:20.454Z,19.26
2022-10-16T10:02:19.346Z,19.16
2022-10-16T10:03:19.394Z,19.24
2022-10-16T10:04:19.369Z,19.37
2022-10-16T10:05:19.354Z,19.32
2022-10-16T10:06:19.385Z,19.35
2022-10-16T10:07:19.356Z,19.32
2022-10-16T10:08:19.377Z,19.37
2022-10-16T10:09:19.368Z,19.41
2022-10-16T10:10:22.213Z,19.49
2022-10-16T10:11:20.796Z,19.47
2022-10-16T10:12:20.681Z,19.53
2022-10-16T10:13:19.383Z,19.59
2022-10-16T10:14:19.391Z,19.66
2022-10-16T10:15:19.381Z,19.66
2022-10-16T10:16:19.375Z,19.75
2022-10-16T10:17:19.416Z,19.75
2022-10-16T10:18:19.386Z,19.79
2022-10-16T10:19:19.384Z,19.77
2022-10-16T10:20:19.416Z,19.87
2022-10-16T10:21:22.223Z,19.93
2022-10-16T10:22:19.415Z,19.96
2022-10-16T10:23:19.390Z,19.99
2022-10-16T10:24:19.388Z,20.11
2022-10-16T10:25:19.443Z,20.08
2022-10-16T10:26:19.394Z,20.02
2022-10-16T10:27:20.496Z,20.03
2022-10-16T10:28:19.500Z,20.1
2022-10-16T10:29:19.397Z,20.03
2022-10-16T10:30:21.777Z,20.11
2022-10-16T10:31:19.411Z,20.07
2022-10-16T10:32:22.206Z,20.12
2022-10-16T10:33:19.414Z,20.19
2022-10-16T10:34:19.411Z,20.18
2022-10-16T10:35:19.409Z,20.24
2022-10-16T10:36:19.407Z,20.29
2022-10-16T10:37:19.631Z,20.24
2022-10-16T10:38:19.440Z,20.32
2022-10-16T10:39:19.646Z,20.27
2022-10-16T10:40:19.533Z,20.22
2022-10-16T10:41:19.435Z,20.24
2022-10-16T10:42:19.429Z,20.3
2022-10-16T10:43:22.426Z,20.3
2022-10-16T10:44:19.449Z,20.36
2022-10-16T10:45:19.446Z,20.21
2022-10-16T10:46:19.430Z,20.32
2022-10-16T10:47:19.441Z,20.36
2022-10-16T10:48:22.719Z,20.36
2022-10-16T10:49:19.441Z,20.33
2022-10-16T10:50:19.572Z,20.4
2022-10-16T10:51:19.432Z,20.39
2022-10-16T10:52:22.317Z,20.52
2022-10-16T10:53:19.458Z,20.49
2022-10-16T10:54:19.466Z,20.5
2022-10-16T10:55:19.450Z,20.48
2022-10-16T10:56:19.479Z,20.55
2022-10-16T10:57:19.456Z,20.58
2022-10-16T10:58:19.448Z,20.53
2022-10-16T10:59:19.460Z,20.59
2022-10-16T11:00:19.634Z,20.63
2022-10-16T11:01:19.587Z,20.66
2022-10-16T11:02:19.722Z,20.64
2022-10-16T11:03:19.597Z,20.7
2022-10-16T11:04:20.539Z,20.66
2022-10-16T11:05:19.481Z,20.63
2022-10-16T11:06:22.368Z,20.71
2022-10-16T11:07:19.472Z,20.74
2022-10-16T11:08:19.515Z,20.75
2022-10-16T11:09:19.464Z,20.66
2022-10-16T11:10:19.500Z,20.77
2022-10-16T11:11:19.477Z,20.71
2022-10-16T11:12:19.466Z,20.7
2022-10-16T11:13:19.485Z,20.67
2022-10-16T11:14:19.478Z,20.75
2022-10-16T11:15:22.506Z,20.74
2022-10-16T11:16:24.099Z,20.83
2022-10-16T11:17:19.488Z,20.86
2022-10-16T11:18:19.500Z,20.8
2022-10-16T11:19:19.488Z,20.8
2022-10-16T11:20:19.526Z,20.88
2022-10-16T11:21:19.526Z,20.89
2022-10-16T11:22:19.485Z,20.78
2022-10-16T11:23:19.503Z,20.93
2022-10-16T11:24:19.517Z,20.9
2022-10-16T11:25:19.813Z,20.88
2022-10-16T11:26:22.678Z,20.93
2022-10-16T11:27:19.502Z,21.01
2022-10-16T11:28:19.552Z,21.01
2022-10-16T11:29:19.706Z,20.93
2022-10-16T11:30:19.507Z,20.96
2022-10-16T11:31:21.027Z,21.13
2022-10-16T11:32:19.546Z,21.19
2022-10-16T11:33:19.508Z,21.33
2022-10-16T11:34:19.519Z,21.3
2022-10-16T11:35:19.516Z,21.35
2022-10-16T11:36:19.560Z,21.41
2022-10-16T11:37:19.521Z,21.45
2022-10-16T11:38:19.533Z,21.58
2022-10-16T11:39:19.526Z,21.75
2022-10-16T11:40:19.528Z,21.69
2022-10-16T11:41:19.546Z,21.85
2022-10-16T11:42:22.652Z,21.97
2022-10-16T11:43:19.583Z,22.14
2022-10-16T11:44:19.538Z,22.21
2022-10-16T11:45:19.555Z,22.15
2022-10-16T11:46:19.556Z,22.23
2022-10-16T11:48:01.850Z,22.34
2022-10-16T11:48:19.529Z,22.46
2022-10-16T11:49:19.569Z,22.49
2022-10-16T11:50:20.015Z,22.51
2022-10-16T11:51:19.571Z,22.33
2022-10-16T11:52:19.812Z,22.43
2022-10-16T11:53:22.462Z,22.49
2022-10-16T11:54:19.692Z,22.41
2022-10-16T11:55:19.552Z,22.53
2022-10-16T11:56:19.572Z,22.56
2022-10-16T11:57:19.549Z,22.7
2022-10-16T11:58:19.582Z,22.91
2022-10-16T11:59:19.610Z,23.07
2022-10-16T12:00:19.556Z,23.26
2022-10-16T12:01:19.817Z,23.47
2022-10-16T12:02:19.568Z,23.47
2022-10-16T12:03:19.837Z,23.59
2022-10-16T12:04:22.332Z,23.56
2022-10-16T12:05:19.572Z,23.84
2022-10-16T12:06:19.591Z,23.81
2022-10-16T12:07:19.573Z,23.76
2022-10-16T12:08:19.603Z,23.94
2022-10-16T12:09:22.576Z,24.13
2022-10-16T12:10:22.479Z,24.22
2022-10-16T12:11:19.835Z,24.29
2022-10-16T12:12:19.584Z,24.38
2022-10-16T12:13:19.607Z,24.56
2022-10-16T12:14:19.609Z,24.61
2022-10-16T12:15:59.520Z,24.75
2022-10-16T12:16:19.595Z,24.88
2022-10-16T12:17:19.593Z,24.92
2022-10-16T12:18:19.595Z,24.99
2022-10-16T12:19:19.714Z,25.12
2022-10-16T12:20:19.612Z,25.06
2022-10-16T12:21:19.619Z,24.93
2022-10-16T12:22:19.613Z,24.92
2022-10-16T12:23:19.604Z,24.93
2022-10-16T12:24:19.634Z,24.85
2022-10-16T12:25:19.621Z,24.77
2022-10-16T12:26:22.799Z,24.69
2022-10-16T12:27:19.667Z,24.88
2022-10-16T12:28:19.650Z,24.97
2022-10-16T12:29:19.622Z,25.01
2022-10-16T12:30:19.651Z,25.04
2022-10-16T12:31:19.646Z,25.15
2022-10-16T12:32:48.017Z,25.29
2022-10-16T12:33:19.619Z,25.26
2022-10-16T12:34:19.631Z,25.39
2022-10-16T12:35:22.407Z,25.51
2022-10-16T12:36:25.001Z,25.49
2022-10-16T12:37:28.664Z,25.54
2022-10-16T12:38:20.657Z,25.58
2022-10-16T12:39:19.666Z,25.67
2022-10-16T12:40:19.712Z,25.78
2022-10-16T12:41:19.648Z,25.52
2022-10-16T12:42:19.664Z,25.44
2022-10-16T12:43:27.350Z,25.21
2022-10-16T12:44:19.668Z,25.12
2022-10-16T12:45:19.641Z,25.11
2022-10-16T12:46:19.678Z,24.89
2022-10-16T12:48:22.422Z,24.81
2022-10-16T12:49:19.660Z,24.66
2022-10-16T12:50:22.017Z,24.62
2022-10-16T12:51:19.679Z,24.63
2022-10-16T12:52:19.652Z,24.56
2022-10-16T12:53:19.652Z,24.43
2022-10-16T12:54:19.658Z,24.28
2022-10-16T12:55:19.668Z,24.26
2022-10-16T12:56:19.684Z,24.16
2022-10-16T12:57:19.729Z,24.16
2022-10-16T12:58:19.677Z,24.13
2022-10-16T12:59:22.517Z,24.1